sensor_id;sensor_type;location;lat;lon;timestamp;temperature;humidity
12893;DHT22;6514;48.606;9.222;2024-03-23T00:53:06;7.80;99.90
12893;DHT22;6514;48.606;9.222;2024-03-23T00:55:32;8.00;99.90
12893;DHT22;6514;48.606;9.222;2024-03-23T00:57:59;8.00;99.90
12893;DHT22;6514;48.606;9.222;2024-03-23T01:00:25;8.00;99.90
12893;DHT22;6514;48.606;9.222;2024-03-23T01:02:52;8.00;99.90
12893;DHT22;6514;48.606;9.222;2024-03-23T01:05:18;8.00;99.90
12893;DHT22;6514;48.606;9.222;2024-03-23T01:07:45;8.10;99.90
12893;DHT22;6514;48.606;9.222;2024-03-23T01:10:12;8.20;99.90
12893;DHT22;6514;48.606;9.222;2024-03-23T01:12:39;8.40;99.90
12893;DHT22;6514;48.606;9.222;2024-03-23T01:15:05;8.60;99.90
12893;DHT22;6514;48.606;9.222;2024-03-23T01:17:32;8.70;99.90
12893;DHT22;6514;48.606;9.222;2024-03-23T01:19:58;8.80;99.90
12893;DHT22;6514;48.606;9.222;2024-03-23T01:22:25;8.80;99.90
12893;DHT22;6514;48.606;9.222;2024-03-23T01:24:50;8.90;99.90
12893;DHT22;6514;48.606;9.222;2024-03-23T01:27:19;9.00;99.90
12893;DHT22;6514;48.606;9.222;2024-03-23T01:29:44;9.10;99.90
12893;DHT22;6514;48.606;9.222;2024-03-23T01:32:11;9.10;99.90
12893;DHT22;6514;48.606;9.222;2024-03-23T01:34:37;9.20;99.90
12893;DHT22;6514;48.606;9.222;2024-03-23T01:37:04;9.30;99.90
12893;DHT22;6514;48.606;9.222;2024-03-23T01:39:30;9.30;99.90
12893;DHT22;6514;48.606;9.222;2024-03-23T01:41:57;9.30;99.90
12893;DHT22;6514;48.606;9.222;2024-03-23T01:44:24;9.30;99.90
12893;DHT22;6514;48.606;9.222;2024-03-23T01:46:51;9.30;99.90
12893;DHT22;6514;48.606;9.222;2024-03-23T01:49:17;9.30;99.90
12893;DHT22;6514;48.606;9.222;2024-03-23T01:51:44;9.30;99.90
12893;DHT22;6514;48.606;9.222;2024-03-23T01:54:10;9.40;99.90
12893;DHT22;6514;48.606;9.222;2024-03-23T01:56:37;9.30;99.90
12893;DHT22;6514;48.606;9.222;2024-03-23T01:59:04;9.40;99.90
12893;DHT22;6514;48.606;9.222;2024-03-23T02:01:32;9.40;99.90
12893;DHT22;6514;48.606;9.222;2024-03-23T02:03:58;9.40;99.90
12893;DHT22;6514;48.606;9.222;2024-03-23T02:06:25;9.40;99.90
12893;DHT22;6514;48.606;9.222;2024-03-23T02:08:51;9.40;99.90
12893;DHT22;6514;48.606;9.222;2024-03-23T02:11:18;9.50;99.90
12893;DHT22;6514;48.606;9.222;2024-03-23T02:13:43;9.60;99.90
12893;DHT22;6514;48.606;9.222;2024-03-23T02:16:10;9.60;99.90
12893;DHT22;6514;48.606;9.222;2024-03-23T02:18:38;9.60;99.90
12893;DHT22;6514;48.606;9.222;2024-03-23T02:21:04;9.70;99.90
12893;DHT22;6514;48.606;9.222;2024-03-23T02:23:32;9.70;99.90
12893;DHT22;6514;48.606;9.222;2024-03-23T02:25:58;9.80;99.90
12893;DHT22;6514;48.606;9.222;2024-03-23T02:28:24;9.90;99.90
12893;DHT22;6514;48.606;9.222;2024-03-23T02:30:51;10.00;99.90
12893;DHT22;6514;48.606;9.222;2024-03-23T02:33:17;10.10;99.90
12893;DHT22;6514;48.606;9.222;2024-03-23T02:35:45;10.10;99.90
12893;DHT22;6514;48.606;9.222;2024-03-23T02:38:11;10.30;99.90
12893;DHT22;6514;48.606;9.222;2024-03-23T02:40:39;10.50;99.90
12893;DHT22;6514;48.606;9.222;2024-03-23T02:43:05;10.60;99.90
12893;DHT22;6514;48.606;9.222;2024-03-23T02:45:31;10.70;99.90
12893;DHT22;6514;48.606;9.222;2024-03-23T02:47:57;10.80;99.90
12893;DHT22;6514;48.606;9.222;2024-03-23T02:50:24;10.70;99.90
12893;DHT22;6514;48.606;9.222;2024-03-23T02:52:50;10.80;99.90
12893;DHT22;6514;48.606;9.222;2024-03-23T02:55:17;10.80;99.90
12893;DHT22;6514;48.606;9.222;2024-03-23T02:57:44;10.80;99.90
12893;DHT22;6514;48.606;9.222;2024-03-23T03:00:11;10.80;99.90
12893;DHT22;6514;48.606;9.222;2024-03-23T03:02:38;10.80;99.90
12893;DHT22;6514;48.606;9.222;2024-03-23T03:05:06;10.80;99.90
12893;DHT22;6514;48.606;9.222;2024-03-23T03:07:32;10.90;99.90
12893;DHT22;6514;48.606;9.222;2024-03-23T03:09:58;10.80;99.90
12893;DHT22;6514;48.606;9.222;2024-03-23T03:12:24;10.90;99.90
12893;DHT22;6514;48.606;9.222;2024-03-23T03:14:52;11.00;99.90
12893;DHT22;6514;48.606;9.222;2024-03-23T03:17:18;10.90;99.90
12893;DHT22;6514;48.606;9.222;2024-03-23T03:19:45;11.00;99.90
12893;DHT22;6514;48.606;9.222;2024-03-23T03:22:11;11.00;99.90
12893;DHT22;6514;48.606;9.222;2024-03-23T03:24:38;11.00;99.90
12893;DHT22;6514;48.606;9.222;2024-03-23T03:27:04;11.00;99.90
12893;DHT22;6514;48.606;9.222;2024-03-23T03:29:32;11.00;99.90
12893;DHT22;6514;48.606;9.222;2024-03-23T03:32:02;11.00;99.90
12893;DHT22;6514;48.606;9.222;2024-03-23T03:34:29;10.90;99.90
12893;DHT22;6514;48.606;9.222;2024-03-23T03:36:56;10.90;99.90
12893;DHT22;6514;48.606;9.222;2024-03-23T03:39:22;10.80;99.90
12893;DHT22;6514;48.606;9.222;2024-03-23T03:41:48;10.80;99.90
12893;DHT22;6514;48.606;9.222;2024-03-23T03:44:15;10.80;99.90
12893;DHT22;6514;48.606;9.222;2024-03-23T03:46:41;10.70;99.90
12893;DHT22;6514;48.606;9.222;2024-03-23T03:49:09;10.70;99.90
12893;DHT22;6514;48.606;9.222;2024-03-23T03:51:36;10.70;99.90
12893;DHT22;6514;48.606;9.222;2024-03-23T03:54:02;10.70;99.90
12893;DHT22;6514;48.606;9.222;2024-03-23T03:56:28;10.50;99.90
12893;DHT22;6514;48.606;9.222;2024-03-23T03:58:55;10.40;99.90
12893;DHT22;6514;48.606;9.222;2024-03-23T04:01:21;10.30;99.90
12893;DHT22;6514;48.606;9.222;2024-03-23T04:03:48;10.10;99.90
12893;DHT22;6514;48.606;9.222;2024-03-23T04:06:20;10.00;99.90
12893;DHT22;6514;48.606;9.222;2024-03-23T04:08:46;9.90;99.90
12893;DHT22;6514;48.606;9.222;2024-03-23T04:11:12;9.70;99.90
12893;DHT22;6514;48.606;9.222;2024-03-23T04:13:39;9.60;99.90
12893;DHT22;6514;48.606;9.222;2024-03-23T04:16:07;9.50;99.90
12893;DHT22;6514;48.606;9.222;2024-03-23T04:18:34;9.40;99.90
12893;DHT22;6514;48.606;9.222;2024-03-23T04:21:00;9.30;99.90
12893;DHT22;6514;48.606;9.222;2024-03-23T04:23:29;9.20;99.90
12893;DHT22;6514;48.606;9.222;2024-03-23T04:25:54;9.10;99.90
12893;DHT22;6514;48.606;9.222;2024-03-23T04:28:21;9.10;99.90
12893;DHT22;6514;48.606;9.222;2024-03-23T04:30:47;9.00;99.90
12893;DHT22;6514;48.606;9.222;2024-03-23T04:33:14;9.00;99.90
12893;DHT22;6514;48.606;9.222;2024-03-23T04:35:40;8.90;99.90
12893;DHT22;6514;48.606;9.222;2024-03-23T04:38:07;8.80;99.90
12893;DHT22;6514;48.606;9.222;2024-03-23T04:40:35;8.80;99.90
12893;DHT22;6514;48.606;9.222;2024-03-23T04:43:02;8.70;99.90
12893;DHT22;6514;48.606;9.222;2024-03-23T04:45:30;8.60;99.90
12893;DHT22;6514;48.606;9.222;2024-03-23T04:47:56;8.60;99.90
12893;DHT22;6514;48.606;9.222;2024-03-23T04:50:23;8.70;99.90
12893;DHT22;6514;48.606;9.222;2024-03-23T04:52:50;8.90;99.90
12893;DHT22;6514;48.606;9.222;2024-03-23T04:55:17;9.10;99.90
12893;DHT22;6514;48.606;9.222;2024-03-23T04:57:45;9.30;99.90
12893;DHT22;6514;48.606;9.222;2024-03-23T05:00:12;9.40;99.90
12893;DHT22;6514;48.606;9.222;2024-03-23T05:02:44;9.60;99.90
12893;DHT22;6514;48.606;9.222;2024-03-23T05:05:11;9.70;99.90
12893;DHT22;6514;48.606;9.222;2024-03-23T05:07:38;9.90;99.90
12893;DHT22;6514;48.606;9.222;2024-03-23T05:10:05;10.00;99.90
12893;DHT22;6514;48.606;9.222;2024-03-23T05:12:31;10.10;99.90
12893;DHT22;6514;48.606;9.222;2024-03-23T05:14:59;10.10;99.90
12893;DHT22;6514;48.606;9.222;2024-03-23T05:17:25;10.10;99.90
12893;DHT22;6514;48.606;9.222;2024-03-23T05:19:52;10.20;99.90
12893;DHT22;6514;48.606;9.222;2024-03-23T05:22:17;10.10;99.90
12893;DHT22;6514;48.606;9.222;2024-03-23T05:24:45;10.10;99.90
12893;DHT22;6514;48.606;9.222;2024-03-23T05:27:11;10.10;99.90
12893;DHT22;6514;48.606;9.222;2024-03-23T05:29:37;10.10;99.90
12893;DHT22;6514;48.606;9.222;2024-03-23T05:32:05;10.10;99.90
12893;DHT22;6514;48.606;9.222;2024-03-23T05:34:32;10.10;99.90
12893;DHT22;6514;48.606;9.222;2024-03-23T05:36:58;10.00;99.90
12893;DHT22;6514;48.606;9.222;2024-03-23T05:39:27;10.00;99.90
12893;DHT22;6514;48.606;9.222;2024-03-23T05:41:53;10.00;99.90
12893;DHT22;6514;48.606;9.222;2024-03-23T05:44:19;9.90;99.90
12893;DHT22;6514;48.606;9.222;2024-03-23T05:46:45;9.90;99.90
12893;DHT22;6514;48.606;9.222;2024-03-23T05:49:15;9.90;99.90
12893;DHT22;6514;48.606;9.222;2024-03-23T05:51:41;9.80;99.90
12893;DHT22;6514;48.606;9.222;2024-03-23T05:54:08;9.80;99.90
12893;DHT22;6514;48.606;9.222;2024-03-23T05:56:34;9.70;99.90
12893;DHT22;6514;48.606;9.222;2024-03-23T05:59:01;9.60;99.90
12893;DHT22;6514;48.606;9.222;2024-03-23T06:01:28;9.50;99.90
12893;DHT22;6514;48.606;9.222;2024-03-23T06:03:58;9.50;99.90
12893;DHT22;6514;48.606;9.222;2024-03-23T06:06:25;9.40;99.90
12893;DHT22;6514;48.606;9.222;2024-03-23T06:08:52;9.30;99.90
12893;DHT22;6514;48.606;9.222;2024-03-23T06:11:17;9.30;99.90
12893;DHT22;6514;48.606;9.222;2024-03-23T06:13:44;9.30;99.90
12893;DHT22;6514;48.606;9.222;2024-03-23T06:16:10;9.20;99.90
12893;DHT22;6514;48.606;9.222;2024-03-23T06:18:37;9.20;99.90
12893;DHT22;6514;48.606;9.222;2024-03-23T06:21:03;9.20;99.90
12893;DHT22;6514;48.606;9.222;2024-03-23T06:23:31;9.20;99.90
12893;DHT22;6514;48.606;9.222;2024-03-23T06:25:57;9.10;99.90
12893;DHT22;6514;48.606;9.222;2024-03-23T06:28:24;9.10;99.90
12893;DHT22;6514;48.606;9.222;2024-03-23T06:30:50;9.00;99.90
12893;DHT22;6514;48.606;9.222;2024-03-23T06:33:17;9.00;99.90
12893;DHT22;6514;48.606;9.222;2024-03-23T06:35:42;9.00;99.90
12893;DHT22;6514;48.606;9.222;2024-03-23T06:38:09;9.00;99.90
12893;DHT22;6514;48.606;9.222;2024-03-23T06:40:37;8.90;99.90
12893;DHT22;6514;48.606;9.222;2024-03-23T06:43:04;8.90;99.90
12893;DHT22;6514;48.606;9.222;2024-03-23T06:45:31;8.90;99.90
12893;DHT22;6514;48.606;9.222;2024-03-23T06:47:57;8.90;99.90
12893;DHT22;6514;48.606;9.222;2024-03-23T06:50:23;8.90;99.90
12893;DHT22;6514;48.606;9.222;2024-03-23T06:52:50;8.90;99.90
12893;DHT22;6514;48.606;9.222;2024-03-23T06:55:16;8.90;99.90
12893;DHT22;6514;48.606;9.222;2024-03-23T06:57:44;9.00;99.90
12893;DHT22;6514;48.606;9.222;2024-03-23T07:00:11;8.90;99.90
12893;DHT22;6514;48.606;9.222;2024-03-23T07:02:39;8.90;99.90
12893;DHT22;6514;48.606;9.222;2024-03-23T07:05:05;8.90;99.90
12893;DHT22;6514;48.606;9.222;2024-03-23T07:07:32;8.90;99.90
12893;DHT22;6514;48.606;9.222;2024-03-23T07:09:58;8.80;99.90
12893;DHT22;6514;48.606;9.222;2024-03-23T07:12:25;8.80;99.90
12893;DHT22;6514;48.606;9.222;2024-03-23T07:14:52;8.80;99.90
12893;DHT22;6514;48.606;9.222;2024-03-23T07:17:19;8.90;99.90
12893;DHT22;6514;48.606;9.222;2024-03-23T07:19:46;9.00;99.90
12893;DHT22;6514;48.606;9.222;2024-03-23T07:22:13;9.00;99.90
12893;DHT22;6514;48.606;9.222;2024-03-23T07:24:40;9.00;99.90
12893;DHT22;6514;48.606;9.222;2024-03-23T07:27:06;9.00;99.90
12893;DHT22;6514;48.606;9.222;2024-03-23T07:29:35;9.00;99.90
12893;DHT22;6514;48.606;9.222;2024-03-23T07:32:04;9.10;99.90
12893;DHT22;6514;48.606;9.222;2024-03-23T07:34:30;9.20;99.90
12893;DHT22;6514;48.606;9.222;2024-03-23T07:36:56;9.30;99.90
12893;DHT22;6514;48.606;9.222;2024-03-23T07:39:25;9.20;99.90
12893;DHT22;6514;48.606;9.222;2024-03-23T07:41:53;9.20;99.90
12893;DHT22;6514;48.606;9.222;2024-03-23T07:44:19;9.30;99.90
12893;DHT22;6514;48.606;9.222;2024-03-23T07:46:45;9.10;99.90
12893;DHT22;6514;48.606;9.222;2024-03-23T07:49:12;9.10;99.90
12893;DHT22;6514;48.606;9.222;2024-03-23T07:51:39;9.00;99.90
12893;DHT22;6514;48.606;9.222;2024-03-23T07:54:06;9.00;99.90
12893;DHT22;6514;48.606;9.222;2024-03-23T07:56:33;9.10;99.90
12893;DHT22;6514;48.606;9.222;2024-03-23T07:58:59;9.20;99.90
12893;DHT22;6514;48.606;9.222;2024-03-23T08:01:29;9.30;99.90
12893;DHT22;6514;48.606;9.222;2024-03-23T08:03:55;9.40;99.90
12893;DHT22;6514;48.606;9.222;2024-03-23T08:06:23;9.50;99.90
12893;DHT22;6514;48.606;9.222;2024-03-23T08:08:52;9.50;99.90
12893;DHT22;6514;48.606;9.222;2024-03-23T08:11:25;9.50;99.90
12893;DHT22;6514;48.606;9.222;2024-03-23T08:13:51;9.40;99.90
12893;DHT22;6514;48.606;9.222;2024-03-23T08:16:17;9.40;99.90
12893;DHT22;6514;48.606;9.222;2024-03-23T08:18:43;9.50;99.90
12893;DHT22;6514;48.606;9.222;2024-03-23T08:21:10;9.50;99.90
12893;DHT22;6514;48.606;9.222;2024-03-23T08:23:39;9.60;99.90
12893;DHT22;6514;48.606;9.222;2024-03-23T08:26:07;9.50;99.90
12893;DHT22;6514;48.606;9.222;2024-03-23T08:28:34;9.40;99.90
12893;DHT22;6514;48.606;9.222;2024-03-23T08:31:03;9.30;99.90
12893;DHT22;6514;48.606;9.222;2024-03-23T08:33:31;9.20;99.90
12893;DHT22;6514;48.606;9.222;2024-03-23T08:35:59;9.20;99.90
12893;DHT22;6514;48.606;9.222;2024-03-23T08:38:26;9.20;99.90
12893;DHT22;6514;48.606;9.222;2024-03-23T08:40:58;9.10;99.90
12893;DHT22;6514;48.606;9.222;2024-03-23T08:43:25;9.10;99.90
12893;DHT22;6514;48.606;9.222;2024-03-23T08:45:52;9.00;99.90
12893;DHT22;6514;48.606;9.222;2024-03-23T08:48:18;9.00;99.90
12893;DHT22;6514;48.606;9.222;2024-03-23T08:50:46;9.00;99.90
12893;DHT22;6514;48.606;9.222;2024-03-23T08:53:12;9.00;99.90
12893;DHT22;6514;48.606;9.222;2024-03-23T08:55:39;9.00;99.90
12893;DHT22;6514;48.606;9.222;2024-03-23T08:58:07;9.00;99.90
12893;DHT22;6514;48.606;9.222;2024-03-23T09:00:34;8.90;99.90
12893;DHT22;6514;48.606;9.222;2024-03-23T09:03:01;8.80;99.90
12893;DHT22;6514;48.606;9.222;2024-03-23T09:05:27;8.70;99.90
12893;DHT22;6514;48.606;9.222;2024-03-23T09:07:56;8.80;99.90
12893;DHT22;6514;48.606;9.222;2024-03-23T09:10:22;9.00;99.90
12893;DHT22;6514;48.606;9.222;2024-03-23T09:12:49;9.20;99.90
12893;DHT22;6514;48.606;9.222;2024-03-23T09:15:16;9.30;99.90
12893;DHT22;6514;48.606;9.222;2024-03-23T09:17:43;9.50;99.90
12893;DHT22;6514;48.606;9.222;2024-03-23T09:20:10;9.60;99.90
12893;DHT22;6514;48.606;9.222;2024-03-23T09:22:37;9.60;99.90
12893;DHT22;6514;48.606;9.222;2024-03-23T09:25:03;9.60;99.90
12893;DHT22;6514;48.606;9.222;2024-03-23T09:27:30;9.40;99.90
12893;DHT22;6514;48.606;9.222;2024-03-23T09:29:56;9.30;99.90
12893;DHT22;6514;48.606;9.222;2024-03-23T09:32:26;9.30;99.90
12893;DHT22;6514;48.606;9.222;2024-03-23T09:34:52;9.30;99.90
12893;DHT22;6514;48.606;9.222;2024-03-23T09:37:19;9.30;99.90
12893;DHT22;6514;48.606;9.222;2024-03-23T09:39:44;9.60;99.90
12893;DHT22;6514;48.606;9.222;2024-03-23T09:42:11;9.60;99.90
12893;DHT22;6514;48.606;9.222;2024-03-23T09:44:37;9.80;99.90
12893;DHT22;6514;48.606;9.222;2024-03-23T09:47:04;10.20;99.90
12893;DHT22;6514;48.606;9.222;2024-03-23T09:49:33;11.00;99.90
12893;DHT22;6514;48.606;9.222;2024-03-23T09:52:02;11.70;99.90
12893;DHT22;6514;48.606;9.222;2024-03-23T09:54:28;12.30;99.90
12893;DHT22;6514;48.606;9.222;2024-03-23T09:56:55;12.40;99.90
12893;DHT22;6514;48.606;9.222;2024-03-23T09:59:21;12.30;99.90
12893;DHT22;6514;48.606;9.222;2024-03-23T10:01:49;12.00;99.90
12893;DHT22;6514;48.606;9.222;2024-03-23T10:04:37;11.50;99.90
12893;DHT22;6514;48.606;9.222;2024-03-23T10:07:11;11.00;99.90
12893;DHT22;6514;48.606;9.222;2024-03-23T10:09:38;10.70;99.90
12893;DHT22;6514;48.606;9.222;2024-03-23T10:12:09;10.70;99.90
12893;DHT22;6514;48.606;9.222;2024-03-23T10:14:35;10.60;99.90
12893;DHT22;6514;48.606;9.222;2024-03-23T10:17:13;10.60;99.90
12893;DHT22;6514;48.606;9.222;2024-03-23T10:19:41;10.70;99.90
12893;DHT22;6514;48.606;9.222;2024-03-23T10:22:09;11.10;99.90
12893;DHT22;6514;48.606;9.222;2024-03-23T10:24:35;11.40;99.90
12893;DHT22;6514;48.606;9.222;2024-03-23T10:27:02;11.80;99.90
12893;DHT22;6514;48.606;9.222;2024-03-23T10:29:28;12.40;99.90
12893;DHT22;6514;48.606;9.222;2024-03-23T10:32:07;12.90;99.90
12893;DHT22;6514;48.606;9.222;2024-03-23T10:34:33;13.20;99.90
12893;DHT22;6514;48.606;9.222;2024-03-23T10:37:03;13.60;99.90
12893;DHT22;6514;48.606;9.222;2024-03-23T10:39:32;13.60;99.90
12893;DHT22;6514;48.606;9.222;2024-03-23T10:42:04;13.80;99.90
12893;DHT22;6514;48.606;9.222;2024-03-23T10:44:31;14.00;99.90
12893;DHT22;6514;48.606;9.222;2024-03-23T10:46:59;14.30;99.90
12893;DHT22;6514;48.606;9.222;2024-03-23T10:49:26;14.50;99.90
12893;DHT22;6514;48.606;9.222;2024-03-23T10:51:56;14.50;99.90
12893;DHT22;6514;48.606;9.222;2024-03-23T10:54:24;14.20;99.90
12893;DHT22;6514;48.606;9.222;2024-03-23T10:56:55;13.50;99.90
12893;DHT22;6514;48.606;9.222;2024-03-23T10:59:22;12.60;99.90
12893;DHT22;6514;48.606;9.222;2024-03-23T11:01:56;11.70;99.90
12893;DHT22;6514;48.606;9.222;2024-03-23T11:04:32;10.20;99.90
12893;DHT22;6514;48.606;9.222;2024-03-23T11:07:00;8.60;99.90
12893;DHT22;6514;48.606;9.222;2024-03-23T11:09:42;7.50;99.90
12893;DHT22;6514;48.606;9.222;2024-03-23T11:12:28;7.20;99.90
12893;DHT22;6514;48.606;9.222;2024-03-23T11:14:59;7.10;99.90
12893;DHT22;6514;48.606;9.222;2024-03-23T11:17:28;7.40;99.90
12893;DHT22;6514;48.606;9.222;2024-03-23T11:19:55;8.20;99.90
12893;DHT22;6514;48.606;9.222;2024-03-23T11:22:39;9.10;99.90
12893;DHT22;6514;48.606;9.222;2024-03-23T11:25:14;10.20;99.90
12893;DHT22;6514;48.606;9.222;2024-03-23T11:27:42;11.00;99.90
12893;DHT22;6514;48.606;9.222;2024-03-23T11:30:16;11.30;99.90
12893;DHT22;6514;48.606;9.222;2024-03-23T11:32:44;11.80;99.90
12893;DHT22;6514;48.606;9.222;2024-03-23T11:35:11;11.90;99.90
12893;DHT22;6514;48.606;9.222;2024-03-23T11:38:02;11.90;99.90
12893;DHT22;6514;48.606;9.222;2024-03-23T11:40:29;11.40;99.90
12893;DHT22;6514;48.606;9.222;2024-03-23T11:42:57;11.00;99.90
12893;DHT22;6514;48.606;9.222;2024-03-23T11:45:23;10.80;99.90
12893;DHT22;6514;48.606;9.222;2024-03-23T11:48:02;10.40;99.90
12893;DHT22;6514;48.606;9.222;2024-03-23T11:50:28;10.30;99.90
12893;DHT22;6514;48.606;9.222;2024-03-23T11:53:07;10.10;99.90
12893;DHT22;6514;48.606;9.222;2024-03-23T11:55:43;10.10;99.90
12893;DHT22;6514;48.606;9.222;2024-03-23T11:58:11;9.90;99.90
12893;DHT22;6514;48.606;9.222;2024-03-23T12:00:37;9.80;99.90
12893;DHT22;6514;48.606;9.222;2024-03-23T12:03:04;9.60;99.90
12893;DHT22;6514;48.606;9.222;2024-03-23T12:05:31;9.50;99.90
12893;DHT22;6514;48.606;9.222;2024-03-23T12:08:20;9.30;99.90
12893;DHT22;6514;48.606;9.222;2024-03-23T12:10:50;9.10;99.90
12893;DHT22;6514;48.606;9.222;2024-03-23T12:13:17;9.30;99.90
12893;DHT22;6514;48.606;9.222;2024-03-23T12:15:45;9.30;99.90
12893;DHT22;6514;48.606;9.222;2024-03-23T12:18:11;9.40;99.90
12893;DHT22;6514;48.606;9.222;2024-03-23T12:20:38;9.70;99.90
12893;DHT22;6514;48.606;9.222;2024-03-23T12:23:09;9.80;99.90
12893;DHT22;6514;48.606;9.222;2024-03-23T12:25:37;9.70;99.90
12893;DHT22;6514;48.606;9.222;2024-03-23T12:28:05;9.50;99.90
12893;DHT22;6514;48.606;9.222;2024-03-23T12:30:34;9.50;99.90
12893;DHT22;6514;48.606;9.222;2024-03-23T12:33:00;9.40;99.90
12893;DHT22;6514;48.606;9.222;2024-03-23T12:35:26;9.20;99.90
12893;DHT22;6514;48.606;9.222;2024-03-23T12:37:52;9.10;99.90
12893;DHT22;6514;48.606;9.222;2024-03-23T12:40:19;9.00;99.90
12893;DHT22;6514;48.606;9.222;2024-03-23T12:42:45;8.90;99.90
12893;DHT22;6514;48.606;9.222;2024-03-23T12:45:14;8.80;99.90
12893;DHT22;6514;48.606;9.222;2024-03-23T12:47:39;8.80;99.90
12893;DHT22;6514;48.606;9.222;2024-03-23T12:50:07;9.00;99.90
12893;DHT22;6514;48.606;9.222;2024-03-23T12:52:33;9.20;99.90
12893;DHT22;6514;48.606;9.222;2024-03-23T12:55:00;9.70;99.90
12893;DHT22;6514;48.606;9.222;2024-03-23T12:57:26;9.90;99.90
12893;DHT22;6514;48.606;9.222;2024-03-23T12:59:53;10.00;99.90
12893;DHT22;6514;48.606;9.222;2024-03-23T13:02:21;9.80;99.90
12893;DHT22;6514;48.606;9.222;2024-03-23T13:04:49;9.50;99.90
12893;DHT22;6514;48.606;9.222;2024-03-23T13:07:16;9.50;99.90
12893;DHT22;6514;48.606;9.222;2024-03-23T13:09:43;9.30;99.90
12893;DHT22;6514;48.606;9.222;2024-03-23T13:12:09;9.40;99.90
12893;DHT22;6514;48.606;9.222;2024-03-23T13:14:37;9.60;99.90
12893;DHT22;6514;48.606;9.222;2024-03-23T13:17:04;9.60;99.90
12893;DHT22;6514;48.606;9.222;2024-03-23T13:19:32;9.60;99.90
12893;DHT22;6514;48.606;9.222;2024-03-23T13:21:59;9.40;99.90
12893;DHT22;6514;48.606;9.222;2024-03-23T13:24:27;9.20;99.90
12893;DHT22;6514;48.606;9.222;2024-03-23T13:26:54;9.00;99.90
12893;DHT22;6514;48.606;9.222;2024-03-23T13:29:21;8.70;99.90
12893;DHT22;6514;48.606;9.222;2024-03-23T13:31:48;8.50;99.90
12893;DHT22;6514;48.606;9.222;2024-03-23T13:34:17;8.40;99.90
12893;DHT22;6514;48.606;9.222;2024-03-23T13:36:46;8.30;99.90
12893;DHT22;6514;48.606;9.222;2024-03-23T13:39:14;8.70;99.90
12893;DHT22;6514;48.606;9.222;2024-03-23T13:41:41;9.00;99.90
12893;DHT22;6514;48.606;9.222;2024-03-23T13:44:09;9.50;99.90
12893;DHT22;6514;48.606;9.222;2024-03-23T13:46:36;10.00;99.90
12893;DHT22;6514;48.606;9.222;2024-03-23T13:49:03;10.40;99.90
12893;DHT22;6514;48.606;9.222;2024-03-23T13:51:29;10.60;99.90
12893;DHT22;6514;48.606;9.222;2024-03-23T13:53:57;10.90;99.90
12893;DHT22;6514;48.606;9.222;2024-03-23T13:56:26;11.20;99.90
12893;DHT22;6514;48.606;9.222;2024-03-23T13:58:54;11.60;99.90
12893;DHT22;6514;48.606;9.222;2024-03-23T14:01:20;11.50;99.90
12893;DHT22;6514;48.606;9.222;2024-03-23T14:03:47;11.50;99.90
12893;DHT22;6514;48.606;9.222;2024-03-23T14:06:13;11.50;99.90
12893;DHT22;6514;48.606;9.222;2024-03-23T14:08:40;11.30;99.90
12893;DHT22;6514;48.606;9.222;2024-03-23T14:11:08;10.90;99.90
12893;DHT22;6514;48.606;9.222;2024-03-23T14:13:36;10.50;99.90
12893;DHT22;6514;48.606;9.222;2024-03-23T14:16:02;10.00;99.90
12893;DHT22;6514;48.606;9.222;2024-03-23T14:18:29;9.70;99.90
12893;DHT22;6514;48.606;9.222;2024-03-23T14:20:58;9.50;99.90
12893;DHT22;6514;48.606;9.222;2024-03-23T14:23:25;9.30;99.90
12893;DHT22;6514;48.606;9.222;2024-03-23T14:25:53;9.10;99.90
12893;DHT22;6514;48.606;9.222;2024-03-23T14:28:21;8.90;99.90
12893;DHT22;6514;48.606;9.222;2024-03-23T14:30:48;9.10;99.90
12893;DHT22;6514;48.606;9.222;2024-03-23T14:33:15;9.60;99.90
12893;DHT22;6514;48.606;9.222;2024-03-23T14:35:41;9.90;99.90
12893;DHT22;6514;48.606;9.222;2024-03-23T14:38:08;10.20;99.90
12893;DHT22;6514;48.606;9.222;2024-03-23T14:40:34;10.40;99.90
12893;DHT22;6514;48.606;9.222;2024-03-23T14:43:01;10.80;99.90
12893;DHT22;6514;48.606;9.222;2024-03-23T14:45:29;11.10;99.90
12893;DHT22;6514;48.606;9.222;2024-03-23T14:47:56;11.30;99.90
12893;DHT22;6514;48.606;9.222;2024-03-23T14:50:23;11.60;99.90
12893;DHT22;6514;48.606;9.222;2024-03-23T14:52:50;11.80;99.90
12893;DHT22;6514;48.606;9.222;2024-03-23T14:55:16;11.70;99.90
12893;DHT22;6514;48.606;9.222;2024-03-23T14:57:44;11.40;99.90
12893;DHT22;6514;48.606;9.222;2024-03-23T15:00:10;11.10;99.90
12893;DHT22;6514;48.606;9.222;2024-03-23T15:02:39;10.50;99.90
12893;DHT22;6514;48.606;9.222;2024-03-23T15:05:05;10.00;99.90
12893;DHT22;6514;48.606;9.222;2024-03-23T15:07:35;9.60;99.90
12893;DHT22;6514;48.606;9.222;2024-03-23T15:10:01;9.00;99.90
12893;DHT22;6514;48.606;9.222;2024-03-23T15:12:30;8.40;99.90
12893;DHT22;6514;48.606;9.222;2024-03-23T15:14:57;7.70;99.90
12893;DHT22;6514;48.606;9.222;2024-03-23T15:17:24;7.50;99.90
12893;DHT22;6514;48.606;9.222;2024-03-23T15:19:51;7.70;99.90
12893;DHT22;6514;48.606;9.222;2024-03-23T15:22:19;8.00;99.90
12893;DHT22;6514;48.606;9.222;2024-03-23T15:24:45;8.40;99.90
12893;DHT22;6514;48.606;9.222;2024-03-23T15:27:11;8.60;99.90
12893;DHT22;6514;48.606;9.222;2024-03-23T15:29:37;8.80;99.90
12893;DHT22;6514;48.606;9.222;2024-03-23T15:32:05;9.00;99.90
12893;DHT22;6514;48.606;9.222;2024-03-23T15:34:30;9.40;99.90
12893;DHT22;6514;48.606;9.222;2024-03-23T15:36:59;9.60;99.90
12893;DHT22;6514;48.606;9.222;2024-03-23T15:39:24;9.60;99.90
12893;DHT22;6514;48.606;9.222;2024-03-23T15:41:51;9.80;99.90
12893;DHT22;6514;48.606;9.222;2024-03-23T15:44:19;9.70;99.90
12893;DHT22;6514;48.606;9.222;2024-03-23T15:46:46;9.60;99.90
12893;DHT22;6514;48.606;9.222;2024-03-23T15:49:12;9.40;99.90
12893;DHT22;6514;48.606;9.222;2024-03-23T15:51:39;9.00;99.90
12893;DHT22;6514;48.606;9.222;2024-03-23T15:54:08;8.70;99.90
12893;DHT22;6514;48.606;9.222;2024-03-23T15:56:35;8.50;99.90
12893;DHT22;6514;48.606;9.222;2024-03-23T15:59:01;8.30;99.90
12893;DHT22;6514;48.606;9.222;2024-03-23T16:01:31;8.10;99.90
12893;DHT22;6514;48.606;9.222;2024-03-23T16:03:59;7.90;99.90
12893;DHT22;6514;48.606;9.222;2024-03-23T16:06:26;7.80;99.90
12893;DHT22;6514;48.606;9.222;2024-03-23T16:08:51;7.60;99.90
12893;DHT22;6514;48.606;9.222;2024-03-23T16:11:20;7.40;99.90
12893;DHT22;6514;48.606;9.222;2024-03-23T16:13:46;7.30;99.90
12893;DHT22;6514;48.606;9.222;2024-03-23T16:16:13;7.30;99.90
12893;DHT22;6514;48.606;9.222;2024-03-23T16:18:39;7.50;99.90
12893;DHT22;6514;48.606;9.222;2024-03-23T16:21:06;7.60;99.90
12893;DHT22;6514;48.606;9.222;2024-03-23T16:23:32;7.40;99.90
12893;DHT22;6514;48.606;9.222;2024-03-23T16:26:00;7.40;99.90
12893;DHT22;6514;48.606;9.222;2024-03-23T16:28:28;7.20;99.90
12893;DHT22;6514;48.606;9.222;2024-03-23T16:30:56;7.20;99.90
12893;DHT22;6514;48.606;9.222;2024-03-23T16:33:22;7.10;99.90
12893;DHT22;6514;48.606;9.222;2024-03-23T16:35:59;7.00;99.90
12893;DHT22;6514;48.606;9.222;2024-03-23T16:38:25;6.90;99.90
12893;DHT22;6514;48.606;9.222;2024-03-23T16:40:56;6.90;99.90
12893;DHT22;6514;48.606;9.222;2024-03-23T16:43:22;6.80;99.90
12893;DHT22;6514;48.606;9.222;2024-03-23T16:45:56;6.70;99.90
12893;DHT22;6514;48.606;9.222;2024-03-23T16:48:22;6.80;99.90
12893;DHT22;6514;48.606;9.222;2024-03-23T16:50:50;6.70;99.90